Wan Hai 508 — 9VJJ6 — position and weather

sailwx.info

Track history (hours):
 
Tides and Currents Weather Stations Pressure Air Temp Water Temp Dewpoint Dewpoint Depression Visibility Wind Speed Wind Dir Waves Ship Positions

Wan Hai 508

Last reported at 2014-Sep-17 00:33 UTC. Time now 2014-Sep-17 01:32 UTC.
Position N 30°40' E 122°60'.

Length 269 m; draft 9 m.

Type: Ship. MMSI: 565567000.

Date/timePositionNaut miles runAvg speedWind from/ knotsBaromVisibWave heightAir tempDewpointWater temp
2014-Sep-17 00:33N 30°40' E 122°60'1514.4
2014-Sep-16 23:32N 30°25' E 123°00'1414.2
2014-Sep-16 22:33N 30°11' E 122°60'1614.2
2014-Sep-16 21:25N 29°55' E 122°57'1314.6
2014-Sep-16 20:33N 29°44' E 122°52'1514.9
2014-Sep-16 19:34N 29°29' E 122°51'1515.0
2014-Sep-16 18:33N 29°14' E 122°47'1514.9
2014-Sep-16 17:32N 28°60' E 122°42'1614.6
2014-Sep-16 16:27N 28°44' E 122°38'1813.8
2014-Sep-16 15:06N 28°29' E 122°26'34315.8
2014-Sep-15 17:25N 23°58' E 118°32'1719.5
2014-Sep-15 16:33N 23°46' E 118°19'2019.2
2014-Sep-15 15:31N 23°34' E 118°02'2018.5
2014-Sep-15 14:26N 23°21' E 117°45'3417.5
2014-Sep-15 12:30N 23°04' E 117°13'1616.4
2014-Sep-15 11:32N 22°57' E 116°57'1616.3
2014-Sep-15 10:32N 22°50' E 116°42'14416.0
2014-Sep-15 01:32N 22°08' E 114°13'1313.0
2014-Sep-15 00:32N 22°19' E 114°05'1111.0
2014-Sep-14 23:32N 22°23' E 113°54'4 4.3
2014-Sep-14 22:31N 22°27' E 113°53'0 0.0
2014-Sep-14 21:25N 22°27' E 113°53'0 0.0
2014-Sep-14 20:31N 22°27' E 113°53'0 0.1
2014-Sep-14 19:31N 22°27' E 113°53'0 0.1
2014-Sep-14 18:28N 22°27' E 113°53'0 0.0
2014-Sep-14 17:31N 22°27' E 113°53'0 0.0
2014-Sep-14 16:31N 22°27' E 113°53'0 0.0
2014-Sep-14 15:31N 22°27' E 113°53'0 0.0
2014-Sep-14 14:31N 22°27' E 113°53'0 0.0
2014-Sep-14 13:25N 22°27' E 113°53'0 0.0
2014-Sep-14 12:31N 22°27' E 113°53'0 0.0
2014-Sep-14 11:31N 22°27' E 113°53'0 0.0
2014-Sep-14 10:25N 22°27' E 113°53'0 0.5
2014-Sep-14 09:33N 22°26' E 113°53'23 9.3
2014-Sep-14 07:06N 22°11' E 114°12'24 1.3
2014-Sep-13 12:18N 21°53' E 113°55'  
2014-Sep-10 10:27N 01°16' E 104°10'1819.7
2014-Sep-10 09:33N 01°12' E 103°53'8 7.8
2014-Sep-10 08:34N 01°16' E 103°46'0 0.4
2014-Sep-10 07:31N 01°17' E 103°47'0 0.0
2014-Sep-10 06:28N 01°17' E 103°47'0 0.0
2014-Sep-10 05:25N 01°17' E 103°47'0 0.0
2014-Sep-10 04:31N 01°17' E 103°47'0 0.0
2014-Sep-10 03:31N 01°17' E 103°47'0 0.0
2014-Sep-10 02:31N 01°17' E 103°47'0 0.0
2014-Sep-10 01:31N 01°17' E 103°47'0 0.0
2014-Sep-10 00:19N 01°17' E 103°47'0 0.0
2014-Sep-09 23:31N 01°17' E 103°47'0 0.0
2014-Sep-09 22:28N 01°17' E 103°47'0 0.0
2014-Sep-09 21:28N 01°17' E 103°47'0 0.0
2014-Sep-09 20:28N 01°17' E 103°47'0 0.0
2014-Sep-09 19:31N 01°17' E 103°47'0 0.5
2014-Sep-09 18:34N 01°16' E 103°47'3 3.0
2014-Sep-09 17:34N 01°15' E 103°44'  
Track history (hours):
 
Tides and Currents Weather Stations Pressure Air Temp Water Temp Dewpoint Dewpoint Depression Visibility Wind Speed Wind Dir Waves Ship Positions

Wan Hai 508

Last reported at 2014-Sep-17 00:33 UTC. Time now 2014-Sep-17 01:32 UTC.
Position N 30°40' E 122°60'.

Length 269 m; draft 9 m.

Type: Ship. MMSI: 565567000.

Date/timePositionNaut miles runAvg speedWind from/ knotsBaromVisibWave heightAir tempDewpointWater temp
2014-Sep-17 00:33N 30°40' E 122°60'1514.4
2014-Sep-16 23:32N 30°25' E 123°00'1414.2
2014-Sep-16 22:33N 30°11' E 122°60'1614.2
2014-Sep-16 21:25N 29°55' E 122°57'1314.6
2014-Sep-16 20:33N 29°44' E 122°52'1514.9
2014-Sep-16 19:34N 29°29' E 122°51'1515.0
2014-Sep-16 18:33N 29°14' E 122°47'1514.9
2014-Sep-16 17:32N 28°60' E 122°42'1614.6
2014-Sep-16 16:27N 28°44' E 122°38'1813.8
2014-Sep-16 15:06N 28°29' E 122°26'34315.8
2014-Sep-15 17:25N 23°58' E 118°32'1719.5
2014-Sep-15 16:33N 23°46' E 118°19'2019.2
2014-Sep-15 15:31N 23°34' E 118°02'2018.5
2014-Sep-15 14:26N 23°21' E 117°45'3417.5
2014-Sep-15 12:30N 23°04' E 117°13'1616.4
2014-Sep-15 11:32N 22°57' E 116°57'1616.3
2014-Sep-15 10:32N 22°50' E 116°42'14416.0
2014-Sep-15 01:32N 22°08' E 114°13'1313.0
2014-Sep-15 00:32N 22°19' E 114°05'1111.0
2014-Sep-14 23:32N 22°23' E 113°54'4 4.3
2014-Sep-14 22:31N 22°27' E 113°53'0 0.0
2014-Sep-14 21:25N 22°27' E 113°53'0 0.0
2014-Sep-14 20:31N 22°27' E 113°53'0 0.1
2014-Sep-14 19:31N 22°27' E 113°53'0 0.1
2014-Sep-14 18:28N 22°27' E 113°53'0 0.0
2014-Sep-14 17:31N 22°27' E 113°53'0 0.0
2014-Sep-14 16:31N 22°27' E 113°53'0 0.0
2014-Sep-14 15:31N 22°27' E 113°53'0 0.0
2014-Sep-14 14:31N 22°27' E 113°53'0 0.0
2014-Sep-14 13:25N 22°27' E 113°53'0 0.0
2014-Sep-14 12:31N 22°27' E 113°53'0 0.0
2014-Sep-14 11:31N 22°27' E 113°53'0 0.0
2014-Sep-14 10:25N 22°27' E 113°53'0 0.5
2014-Sep-14 09:33N 22°26' E 113°53'23 9.3
2014-Sep-14 07:06N 22°11' E 114°12'24 1.3
2014-Sep-13 12:18N 21°53' E 113°55'  
2014-Sep-10 10:27N 01°16' E 104°10'1819.7
2014-Sep-10 09:33N 01°12' E 103°53'8 7.8
2014-Sep-10 08:34N 01°16' E 103°46'0 0.4
2014-Sep-10 07:31N 01°17' E 103°47'0 0.0
2014-Sep-10 06:28N 01°17' E 103°47'0 0.0
2014-Sep-10 05:25N 01°17' E 103°47'0 0.0
2014-Sep-10 04:31N 01°17' E 103°47'0 0.0
2014-Sep-10 03:31N 01°17' E 103°47'0 0.0
2014-Sep-10 02:31N 01°17' E 103°47'0 0.0
2014-Sep-10 01:31N 01°17' E 103°47'0 0.0
2014-Sep-10 00:19N 01°17' E 103°47'0 0.0
2014-Sep-09 23:31N 01°17' E 103°47'0 0.0
2014-Sep-09 22:28N 01°17' E 103°47'0 0.0
2014-Sep-09 21:28N 01°17' E 103°47'0 0.0
2014-Sep-09 20:28N 01°17' E 103°47'0 0.0
2014-Sep-09 19:31N 01°17' E 103°47'0 0.5
2014-Sep-09 18:34N 01°16' E 103°47'3 3.0
2014-Sep-09 17:34N 01°15' E 103°44'  

Dump ship's entire track history